sensor_id;sensor_type;location;lat;lon;timestamp;P1;durP1;ratioP1;P2;durP2;ratioP2
81336;SDS011;70799;48.000;10.584;2023-12-07T00:00:33;19.25;;;8.45;;
81336;SDS011;70799;48.000;10.584;2023-12-07T00:03:09;20.17;;;8.55;;
81336;SDS011;70799;48.000;10.584;2023-12-07T00:05:47;17.63;;;8.63;;
81336;SDS011;70799;48.000;10.584;2023-12-07T00:08:23;23.05;;;8.98;;
81336;SDS011;70799;48.000;10.584;2023-12-07T00:11:00;17.90;;;8.55;;
81336;SDS011;70799;48.000;10.584;2023-12-07T00:13:36;17.58;;;8.30;;
81336;SDS011;70799;48.000;10.584;2023-12-07T00:16:12;20.75;;;8.30;;
81336;SDS011;70799;48.000;10.584;2023-12-07T00:18:49;18.10;;;7.97;;
81336;SDS011;70799;48.000;10.584;2023-12-07T00:21:26;17.67;;;7.82;;
81336;SDS011;70799;48.000;10.584;2023-12-07T00:24:02;20.30;;;8.25;;
81336;SDS011;70799;48.000;10.584;2023-12-07T00:29:15;19.10;;;8.10;;
81336;SDS011;70799;48.000;10.584;2023-12-07T00:31:51;18.67;;;7.93;;
81336;SDS011;70799;48.000;10.584;2023-12-07T00:34:27;17.30;;;7.80;;
81336;SDS011;70799;48.000;10.584;2023-12-07T00:37:04;19.65;;;8.38;;
81336;SDS011;70799;48.000;10.584;2023-12-07T00:39:40;17.75;;;8.18;;
81336;SDS011;70799;48.000;10.584;2023-12-07T00:42:17;19.08;;;7.90;;
81336;SDS011;70799;48.000;10.584;2023-12-07T00:44:54;16.73;;;7.32;;
81336;SDS011;70799;48.000;10.584;2023-12-07T00:47:32;17.75;;;7.97;;
81336;SDS011;70799;48.000;10.584;2023-12-07T00:52:47;15.52;;;7.10;;
81336;SDS011;70799;48.000;10.584;2023-12-07T00:55:23;16.70;;;7.80;;
81336;SDS011;70799;48.000;10.584;2023-12-07T00:58:01;19.85;;;8.27;;
81336;SDS011;70799;48.000;10.584;2023-12-07T01:00:37;19.70;;;8.77;;
81336;SDS011;70799;48.000;10.584;2023-12-07T01:03:14;19.40;;;7.93;;
81336;SDS011;70799;48.000;10.584;2023-12-07T01:05:50;23.20;;;8.88;;
81336;SDS011;70799;48.000;10.584;2023-12-07T01:08:26;20.05;;;8.68;;
81336;SDS011;70799;48.000;10.584;2023-12-07T01:11:03;17.48;;;7.97;;
81336;SDS011;70799;48.000;10.584;2023-12-07T01:13:40;19.00;;;7.72;;
81336;SDS011;70799;48.000;10.584;2023-12-07T01:16:16;16.85;;;7.07;;
81336;SDS011;70799;48.000;10.584;2023-12-07T01:18:52;17.00;;;7.75;;
81336;SDS011;70799;48.000;10.584;2023-12-07T01:21:30;16.63;;;7.20;;
81336;SDS011;70799;48.000;10.584;2023-12-07T01:24:07;17.92;;;7.30;;
81336;SDS011;70799;48.000;10.584;2023-12-07T01:26:47;17.90;;;7.55;;
81336;SDS011;70799;48.000;10.584;2023-12-07T01:29:23;17.20;;;7.88;;
81336;SDS011;70799;48.000;10.584;2023-12-07T01:31:59;17.08;;;7.43;;
81336;SDS011;70799;48.000;10.584;2023-12-07T01:34:36;16.35;;;6.97;;
81336;SDS011;70799;48.000;10.584;2023-12-07T01:37:12;18.85;;;7.47;;
81336;SDS011;70799;48.000;10.584;2023-12-07T01:39:48;15.90;;;6.93;;
81336;SDS011;70799;48.000;10.584;2023-12-07T01:42:25;17.30;;;7.15;;
81336;SDS011;70799;48.000;10.584;2023-12-07T01:45:01;18.63;;;7.68;;
81336;SDS011;70799;48.000;10.584;2023-12-07T01:47:37;17.25;;;7.07;;
81336;SDS011;70799;48.000;10.584;2023-12-07T01:55:26;14.13;;;6.05;;
81336;SDS011;70799;48.000;10.584;2023-12-07T01:58:03;17.30;;;7.20;;
81336;SDS011;70799;48.000;10.584;2023-12-07T02:00:40;17.83;;;7.53;;
81336;SDS011;70799;48.000;10.584;2023-12-07T02:03:16;17.10;;;7.35;;
81336;SDS011;70799;48.000;10.584;2023-12-07T02:05:53;18.55;;;7.53;;
81336;SDS011;70799;48.000;10.584;2023-12-07T02:08:32;18.80;;;7.20;;
81336;SDS011;70799;48.000;10.584;2023-12-07T02:11:14;19.02;;;8.10;;
81336;SDS011;70799;48.000;10.584;2023-12-07T02:22:16;11.93;;;5.32;;
81336;SDS011;70799;48.000;10.584;2023-12-07T02:27:43;16.83;;;7.07;;
81336;SDS011;70799;48.000;10.584;2023-12-07T02:30:20;16.73;;;7.13;;
81336;SDS011;70799;48.000;10.584;2023-12-07T02:32:56;14.82;;;7.20;;
81336;SDS011;70799;48.000;10.584;2023-12-07T02:35:32;18.23;;;7.40;;
81336;SDS011;70799;48.000;10.584;2023-12-07T02:38:08;15.00;;;6.68;;
81336;SDS011;70799;48.000;10.584;2023-12-07T02:40:45;13.23;;;5.88;;
81336;SDS011;70799;48.000;10.584;2023-12-07T02:43:24;15.43;;;6.35;;
81336;SDS011;70799;48.000;10.584;2023-12-07T02:46:01;13.23;;;6.22;;
81336;SDS011;70799;48.000;10.584;2023-12-07T02:48:37;13.45;;;5.43;;
81336;SDS011;70799;48.000;10.584;2023-12-07T02:51:13;14.13;;;6.38;;
81336;SDS011;70799;48.000;10.584;2023-12-07T02:53:49;16.23;;;6.43;;
81336;SDS011;70799;48.000;10.584;2023-12-07T02:56:25;16.08;;;6.50;;
81336;SDS011;70799;48.000;10.584;2023-12-07T02:59:01;14.82;;;6.60;;
81336;SDS011;70799;48.000;10.584;2023-12-07T03:01:37;13.45;;;6.10;;
81336;SDS011;70799;48.000;10.584;2023-12-07T03:04:13;14.98;;;6.03;;
81336;SDS011;70799;48.000;10.584;2023-12-07T03:06:49;13.10;;;5.75;;
81336;SDS011;70799;48.000;10.584;2023-12-07T03:09:25;14.07;;;5.75;;
81336;SDS011;70799;48.000;10.584;2023-12-07T03:12:02;13.52;;;5.70;;
81336;SDS011;70799;48.000;10.584;2023-12-07T03:14:38;13.60;;;5.68;;
81336;SDS011;70799;48.000;10.584;2023-12-07T03:17:14;14.55;;;5.85;;
81336;SDS011;70799;48.000;10.584;2023-12-07T03:19:50;16.40;;;6.63;;
81336;SDS011;70799;48.000;10.584;2023-12-07T03:22:26;15.90;;;6.57;;
81336;SDS011;70799;48.000;10.584;2023-12-07T03:25:03;13.85;;;5.75;;
81336;SDS011;70799;48.000;10.584;2023-12-07T03:30:15;16.77;;;6.72;;
81336;SDS011;70799;48.000;10.584;2023-12-07T03:32:51;13.82;;;6.13;;
81336;SDS011;70799;48.000;10.584;2023-12-07T03:35:27;15.32;;;6.93;;
81336;SDS011;70799;48.000;10.584;2023-12-07T03:38:03;16.23;;;6.55;;
81336;SDS011;70799;48.000;10.584;2023-12-07T03:40:39;17.40;;;7.60;;
81336;SDS011;70799;48.000;10.584;2023-12-07T03:43:15;14.93;;;6.47;;
81336;SDS011;70799;48.000;10.584;2023-12-07T03:45:54;15.65;;;7.28;;
81336;SDS011;70799;48.000;10.584;2023-12-07T03:48:30;14.02;;;6.65;;
81336;SDS011;70799;48.000;10.584;2023-12-07T03:53:42;14.20;;;5.97;;
81336;SDS011;70799;48.000;10.584;2023-12-07T03:56:23;16.92;;;6.25;;
81336;SDS011;70799;48.000;10.584;2023-12-07T03:58:59;15.43;;;6.68;;
81336;SDS011;70799;48.000;10.584;2023-12-07T04:01:35;16.13;;;7.00;;
81336;SDS011;70799;48.000;10.584;2023-12-07T04:04:11;17.55;;;7.10;;
81336;SDS011;70799;48.000;10.584;2023-12-07T04:06:47;18.08;;;7.13;;
81336;SDS011;70799;48.000;10.584;2023-12-07T04:09:23;14.55;;;5.70;;
81336;SDS011;70799;48.000;10.584;2023-12-07T04:11:59;14.73;;;6.28;;
81336;SDS011;70799;48.000;10.584;2023-12-07T04:14:37;17.48;;;6.45;;
81336;SDS011;70799;48.000;10.584;2023-12-07T04:17:13;17.85;;;7.13;;
81336;SDS011;70799;48.000;10.584;2023-12-07T04:19:49;17.40;;;7.55;;
81336;SDS011;70799;48.000;10.584;2023-12-07T04:22:25;20.10;;;8.50;;
81336;SDS011;70799;48.000;10.584;2023-12-07T04:25:01;21.52;;;8.15;;
81336;SDS011;70799;48.000;10.584;2023-12-07T04:27:37;21.73;;;7.45;;
81336;SDS011;70799;48.000;10.584;2023-12-07T04:30:13;16.98;;;7.68;;
81336;SDS011;70799;48.000;10.584;2023-12-07T04:32:50;18.33;;;7.88;;
81336;SDS011;70799;48.000;10.584;2023-12-07T04:35:26;16.58;;;7.10;;
81336;SDS011;70799;48.000;10.584;2023-12-07T04:38:02;21.35;;;7.20;;
81336;SDS011;70799;48.000;10.584;2023-12-07T04:40:38;18.05;;;7.97;;
81336;SDS011;70799;48.000;10.584;2023-12-07T04:43:14;18.67;;;7.75;;
81336;SDS011;70799;48.000;10.584;2023-12-07T04:45:50;16.13;;;7.10;;
81336;SDS011;70799;48.000;10.584;2023-12-07T04:48:26;16.85;;;6.75;;
81336;SDS011;70799;48.000;10.584;2023-12-07T04:51:02;17.15;;;7.00;;
81336;SDS011;70799;48.000;10.584;2023-12-07T04:53:38;16.55;;;6.55;;
81336;SDS011;70799;48.000;10.584;2023-12-07T04:56:14;16.17;;;6.85;;
81336;SDS011;70799;48.000;10.584;2023-12-07T04:58:50;14.88;;;6.72;;
81336;SDS011;70799;48.000;10.584;2023-12-07T05:01:26;18.92;;;7.25;;
81336;SDS011;70799;48.000;10.584;2023-12-07T05:04:03;14.60;;;6.43;;
81336;SDS011;70799;48.000;10.584;2023-12-07T05:06:39;16.75;;;6.97;;
81336;SDS011;70799;48.000;10.584;2023-12-07T05:09:15;15.55;;;6.78;;
81336;SDS011;70799;48.000;10.584;2023-12-07T05:11:51;17.70;;;6.95;;
81336;SDS011;70799;48.000;10.584;2023-12-07T05:14:27;14.48;;;6.10;;
81336;SDS011;70799;48.000;10.584;2023-12-07T05:17:03;15.63;;;7.03;;
81336;SDS011;70799;48.000;10.584;2023-12-07T05:19:39;15.43;;;6.57;;
81336;SDS011;70799;48.000;10.584;2023-12-07T05:22:15;16.58;;;6.82;;
81336;SDS011;70799;48.000;10.584;2023-12-07T05:24:51;18.50;;;6.78;;
81336;SDS011;70799;48.000;10.584;2023-12-07T05:27:27;16.08;;;6.97;;
81336;SDS011;70799;48.000;10.584;2023-12-07T05:30:03;14.55;;;6.10;;
81336;SDS011;70799;48.000;10.584;2023-12-07T05:32:41;15.75;;;6.38;;
81336;SDS011;70799;48.000;10.584;2023-12-07T05:35:17;16.60;;;7.22;;
81336;SDS011;70799;48.000;10.584;2023-12-07T05:37:53;14.45;;;7.00;;
81336;SDS011;70799;48.000;10.584;2023-12-07T05:40:30;14.88;;;6.25;;
81336;SDS011;70799;48.000;10.584;2023-12-07T05:43:06;16.77;;;7.13;;
81336;SDS011;70799;48.000;10.584;2023-12-07T05:45:42;14.48;;;6.50;;
81336;SDS011;70799;48.000;10.584;2023-12-07T05:48:18;14.98;;;6.65;;
81336;SDS011;70799;48.000;10.584;2023-12-07T05:50:54;16.23;;;6.88;;
81336;SDS011;70799;48.000;10.584;2023-12-07T05:53:32;18.00;;;7.22;;
81336;SDS011;70799;48.000;10.584;2023-12-07T05:56:08;19.98;;;7.88;;
81336;SDS011;70799;48.000;10.584;2023-12-07T05:58:45;13.77;;;6.90;;
81336;SDS011;70799;48.000;10.584;2023-12-07T06:01:21;17.45;;;7.50;;
81336;SDS011;70799;48.000;10.584;2023-12-07T06:03:58;14.18;;;6.60;;
81336;SDS011;70799;48.000;10.584;2023-12-07T06:06:34;16.33;;;6.78;;
81336;SDS011;70799;48.000;10.584;2023-12-07T06:09:10;17.70;;;7.25;;
81336;SDS011;70799;48.000;10.584;2023-12-07T06:11:46;15.40;;;6.65;;
81336;SDS011;70799;48.000;10.584;2023-12-07T06:14:23;15.30;;;7.13;;
81336;SDS011;70799;48.000;10.584;2023-12-07T06:16:59;17.65;;;6.82;;
81336;SDS011;70799;48.000;10.584;2023-12-07T06:19:35;16.10;;;6.38;;
81336;SDS011;70799;48.000;10.584;2023-12-07T06:24:48;14.85;;;5.78;;
81336;SDS011;70799;48.000;10.584;2023-12-07T06:27:24;13.77;;;6.28;;
81336;SDS011;70799;48.000;10.584;2023-12-07T06:30:01;17.73;;;7.25;;
81336;SDS011;70799;48.000;10.584;2023-12-07T06:32:39;15.63;;;6.38;;
81336;SDS011;70799;48.000;10.584;2023-12-07T06:35:15;15.65;;;6.50;;
81336;SDS011;70799;48.000;10.584;2023-12-07T06:37:52;14.30;;;6.57;;
81336;SDS011;70799;48.000;10.584;2023-12-07T06:40:28;15.25;;;6.72;;
81336;SDS011;70799;48.000;10.584;2023-12-07T06:43:04;14.80;;;6.65;;
81336;SDS011;70799;48.000;10.584;2023-12-07T06:45:40;13.98;;;7.03;;
81336;SDS011;70799;48.000;10.584;2023-12-07T06:48:16;14.85;;;6.88;;
81336;SDS011;70799;48.000;10.584;2023-12-07T06:50:52;14.15;;;6.22;;
81336;SDS011;70799;48.000;10.584;2023-12-07T06:53:28;14.43;;;6.22;;
81336;SDS011;70799;48.000;10.584;2023-12-07T06:58:41;14.65;;;5.55;;
81336;SDS011;70799;48.000;10.584;2023-12-07T07:01:18;14.68;;;5.85;;
81336;SDS011;70799;48.000;10.584;2023-12-07T07:03:54;15.57;;;6.43;;
81336;SDS011;70799;48.000;10.584;2023-12-07T07:06:30;15.80;;;5.88;;
81336;SDS011;70799;48.000;10.584;2023-12-07T07:09:06;14.77;;;6.40;;
81336;SDS011;70799;48.000;10.584;2023-12-07T07:11:47;15.80;;;6.43;;
81336;SDS011;70799;48.000;10.584;2023-12-07T07:14:23;18.20;;;7.03;;
81336;SDS011;70799;48.000;10.584;2023-12-07T07:16:59;16.40;;;7.18;;
81336;SDS011;70799;48.000;10.584;2023-12-07T07:19:39;16.27;;;6.65;;
81336;SDS011;70799;48.000;10.584;2023-12-07T07:22:16;14.52;;;5.72;;
81336;SDS011;70799;48.000;10.584;2023-12-07T07:24:52;16.20;;;7.43;;
81336;SDS011;70799;48.000;10.584;2023-12-07T07:27:28;13.95;;;6.63;;
81336;SDS011;70799;48.000;10.584;2023-12-07T07:30:04;12.88;;;5.57;;
81336;SDS011;70799;48.000;10.584;2023-12-07T07:32:41;15.43;;;5.65;;
81336;SDS011;70799;48.000;10.584;2023-12-07T07:35:17;16.40;;;6.88;;
81336;SDS011;70799;48.000;10.584;2023-12-07T07:37:54;12.82;;;6.28;;
81336;SDS011;70799;48.000;10.584;2023-12-07T07:40:33;14.52;;;6.55;;
81336;SDS011;70799;48.000;10.584;2023-12-07T07:43:09;16.55;;;6.75;;
81336;SDS011;70799;48.000;10.584;2023-12-07T07:48:23;13.02;;;5.82;;
81336;SDS011;70799;48.000;10.584;2023-12-07T07:50:59;14.77;;;6.10;;
81336;SDS011;70799;48.000;10.584;2023-12-07T07:53:36;16.23;;;7.65;;
81336;SDS011;70799;48.000;10.584;2023-12-07T07:56:12;13.57;;;6.28;;
81336;SDS011;70799;48.000;10.584;2023-12-07T07:58:49;14.50;;;6.32;;
81336;SDS011;70799;48.000;10.584;2023-12-07T08:01:25;14.65;;;6.22;;
81336;SDS011;70799;48.000;10.584;2023-12-07T08:04:02;15.73;;;6.28;;
81336;SDS011;70799;48.000;10.584;2023-12-07T08:06:38;15.00;;;6.50;;
81336;SDS011;70799;48.000;10.584;2023-12-07T08:09:14;14.50;;;6.25;;
81336;SDS011;70799;48.000;10.584;2023-12-07T08:11:50;14.60;;;6.30;;
81336;SDS011;70799;48.000;10.584;2023-12-07T08:14:26;13.60;;;5.60;;
81336;SDS011;70799;48.000;10.584;2023-12-07T08:17:03;13.82;;;6.45;;
81336;SDS011;70799;48.000;10.584;2023-12-07T08:19:41;12.27;;;6.30;;
81336;SDS011;70799;48.000;10.584;2023-12-07T08:22:17;13.10;;;6.43;;
81336;SDS011;70799;48.000;10.584;2023-12-07T08:24:53;14.05;;;6.65;;
81336;SDS011;70799;48.000;10.584;2023-12-07T08:27:41;10.98;;;5.63;;
81336;SDS011;70799;48.000;10.584;2023-12-07T08:30:21;12.38;;;6.05;;
81336;SDS011;70799;48.000;10.584;2023-12-07T08:32:57;11.60;;;5.50;;
81336;SDS011;70799;48.000;10.584;2023-12-07T08:35:35;14.52;;;7.40;;
81336;SDS011;70799;48.000;10.584;2023-12-07T08:38:11;15.48;;;7.43;;
81336;SDS011;70799;48.000;10.584;2023-12-07T08:40:47;15.43;;;6.78;;
81336;SDS011;70799;48.000;10.584;2023-12-07T08:46:00;17.30;;;7.03;;
81336;SDS011;70799;48.000;10.584;2023-12-07T08:48:39;14.45;;;7.28;;
81336;SDS011;70799;48.000;10.584;2023-12-07T08:53:52;13.48;;;6.57;;
81336;SDS011;70799;48.000;10.584;2023-12-07T08:56:28;12.55;;;5.53;;
81336;SDS011;70799;48.000;10.584;2023-12-07T08:59:04;16.08;;;6.50;;
81336;SDS011;70799;48.000;10.584;2023-12-07T09:01:41;13.98;;;6.22;;
81336;SDS011;70799;48.000;10.584;2023-12-07T09:04:17;13.70;;;6.53;;
81336;SDS011;70799;48.000;10.584;2023-12-07T09:06:53;13.75;;;6.88;;
81336;SDS011;70799;48.000;10.584;2023-12-07T09:09:30;14.82;;;6.80;;
81336;SDS011;70799;48.000;10.584;2023-12-07T09:12:06;15.23;;;6.47;;
81336;SDS011;70799;48.000;10.584;2023-12-07T09:14:42;13.75;;;6.63;;
81336;SDS011;70799;48.000;10.584;2023-12-07T09:19:55;14.40;;;7.03;;
81336;SDS011;70799;48.000;10.584;2023-12-07T09:29:10;15.38;;;6.43;;
81336;SDS011;70799;48.000;10.584;2023-12-07T09:31:46;15.75;;;6.97;;
81336;SDS011;70799;48.000;10.584;2023-12-07T09:37:09;15.10;;;6.65;;
81336;SDS011;70799;48.000;10.584;2023-12-07T09:39:45;15.15;;;7.18;;
81336;SDS011;70799;48.000;10.584;2023-12-07T09:42:21;16.15;;;8.25;;
81336;SDS011;70799;48.000;10.584;2023-12-07T09:45:07;16.98;;;6.97;;
81336;SDS011;70799;48.000;10.584;2023-12-07T09:50:24;13.77;;;6.60;;
81336;SDS011;70799;48.000;10.584;2023-12-07T09:53:01;16.00;;;6.93;;
81336;SDS011;70799;48.000;10.584;2023-12-07T09:55:39;13.70;;;6.97;;
81336;SDS011;70799;48.000;10.584;2023-12-07T09:58:15;13.90;;;6.90;;
81336;SDS011;70799;48.000;10.584;2023-12-07T10:01:08;10.93;;;5.30;;
81336;SDS011;70799;48.000;10.584;2023-12-07T10:03:47;14.00;;;6.43;;
81336;SDS011;70799;48.000;10.584;2023-12-07T10:06:23;12.50;;;5.82;;
81336;SDS011;70799;48.000;10.584;2023-12-07T10:09:02;14.55;;;6.93;;
81336;SDS011;70799;48.000;10.584;2023-12-07T10:11:48;13.80;;;5.85;;
81336;SDS011;70799;48.000;10.584;2023-12-07T10:14:24;11.20;;;5.50;;
81336;SDS011;70799;48.000;10.584;2023-12-07T10:17:00;14.20;;;5.85;;
81336;SDS011;70799;48.000;10.584;2023-12-07T10:19:36;13.32;;;5.95;;
81336;SDS011;70799;48.000;10.584;2023-12-07T10:22:13;11.82;;;5.18;;
81336;SDS011;70799;48.000;10.584;2023-12-07T10:24:49;10.07;;;5.65;;
81336;SDS011;70799;48.000;10.584;2023-12-07T10:27:25;11.35;;;5.57;;
81336;SDS011;70799;48.000;10.584;2023-12-07T10:32:38;7.80;;;4.05;;
81336;SDS011;70799;48.000;10.584;2023-12-07T10:37:51;7.30;;;3.42;;
81336;SDS011;70799;48.000;10.584;2023-12-07T10:40:27;8.38;;;3.60;;
81336;SDS011;70799;48.000;10.584;2023-12-07T10:43:07;7.57;;;3.63;;
81336;SDS011;70799;48.000;10.584;2023-12-07T10:45:43;7.13;;;3.15;;
81336;SDS011;70799;48.000;10.584;2023-12-07T10:48:20;7.25;;;3.55;;
81336;SDS011;70799;48.000;10.584;2023-12-07T10:50:58;6.93;;;3.53;;
81336;SDS011;70799;48.000;10.584;2023-12-07T10:53:37;6.72;;;3.20;;
81336;SDS011;70799;48.000;10.584;2023-12-07T10:56:17;6.50;;;3.50;;
81336;SDS011;70799;48.000;10.584;2023-12-07T10:59:01;6.65;;;2.85;;
81336;SDS011;70799;48.000;10.584;2023-12-07T11:01:40;6.53;;;3.30;;
81336;SDS011;70799;48.000;10.584;2023-12-07T11:04:17;5.00;;;2.75;;
81336;SDS011;70799;48.000;10.584;2023-12-07T11:12:12;5.95;;;2.92;;
81336;SDS011;70799;48.000;10.584;2023-12-07T11:14:52;6.32;;;2.53;;
81336;SDS011;70799;48.000;10.584;2023-12-07T11:17:28;7.07;;;3.17;;
81336;SDS011;70799;48.000;10.584;2023-12-07T11:20:05;8.20;;;3.25;;
81336;SDS011;70799;48.000;10.584;2023-12-07T11:22:41;5.75;;;3.15;;
81336;SDS011;70799;48.000;10.584;2023-12-07T11:25:17;7.00;;;3.55;;
81336;SDS011;70799;48.000;10.584;2023-12-07T11:27:59;6.93;;;3.67;;
81336;SDS011;70799;48.000;10.584;2023-12-07T11:30:41;6.43;;;3.00;;
81336;SDS011;70799;48.000;10.584;2023-12-07T11:33:19;7.40;;;3.33;;
81336;SDS011;70799;48.000;10.584;2023-12-07T11:39:15;6.05;;;2.97;;
81336;SDS011;70799;48.000;10.584;2023-12-07T11:41:49;8.02;;;3.33;;
81336;SDS011;70799;48.000;10.584;2023-12-07T11:44:39;7.35;;;3.28;;
81336;SDS011;70799;48.000;10.584;2023-12-07T11:47:17;6.22;;;3.38;;
81336;SDS011;70799;48.000;10.584;2023-12-07T11:49:56;7.32;;;3.08;;
81336;SDS011;70799;48.000;10.584;2023-12-07T11:52:38;7.55;;;2.88;;
81336;SDS011;70799;48.000;10.584;2023-12-07T11:55:15;7.03;;;3.05;;
81336;SDS011;70799;48.000;10.584;2023-12-07T11:57:51;6.95;;;3.28;;
81336;SDS011;70799;48.000;10.584;2023-12-07T12:03:03;7.22;;;3.08;;
81336;SDS011;70799;48.000;10.584;2023-12-07T12:05:40;7.35;;;2.92;;
81336;SDS011;70799;48.000;10.584;2023-12-07T12:08:18;5.57;;;3.08;;
81336;SDS011;70799;48.000;10.584;2023-12-07T12:10:54;5.90;;;2.47;;
81336;SDS011;70799;48.000;10.584;2023-12-07T12:13:36;7.22;;;3.08;;
81336;SDS011;70799;48.000;10.584;2023-12-07T12:16:13;5.38;;;2.75;;
81336;SDS011;70799;48.000;10.584;2023-12-07T12:18:50;6.20;;;2.90;;
81336;SDS011;70799;48.000;10.584;2023-12-07T12:21:26;4.78;;;2.45;;
81336;SDS011;70799;48.000;10.584;2023-12-07T12:24:03;4.82;;;2.65;;
81336;SDS011;70799;48.000;10.584;2023-12-07T12:26:41;6.05;;;3.10;;
81336;SDS011;70799;48.000;10.584;2023-12-07T12:29:19;5.13;;;2.30;;
81336;SDS011;70799;48.000;10.584;2023-12-07T12:32:05;4.47;;;2.45;;
81336;SDS011;70799;48.000;10.584;2023-12-07T12:34:41;5.10;;;2.58;;
81336;SDS011;70799;48.000;10.584;2023-12-07T12:37:17;7.22;;;2.80;;
81336;SDS011;70799;48.000;10.584;2023-12-07T12:39:54;4.15;;;2.30;;
81336;SDS011;70799;48.000;10.584;2023-12-07T12:42:34;3.92;;;2.17;;
81336;SDS011;70799;48.000;10.584;2023-12-07T12:45:11;5.35;;;2.65;;
81336;SDS011;70799;48.000;10.584;2023-12-07T12:47:49;4.32;;;2.20;;
81336;SDS011;70799;48.000;10.584;2023-12-07T12:50:32;3.47;;;1.83;;
81336;SDS011;70799;48.000;10.584;2023-12-07T12:53:10;4.22;;;2.03;;
81336;SDS011;70799;48.000;10.584;2023-12-07T12:55:46;4.63;;;2.08;;
81336;SDS011;70799;48.000;10.584;2023-12-07T12:58:23;4.43;;;2.22;;
81336;SDS011;70799;48.000;10.584;2023-12-07T13:00:59;6.60;;;2.40;;
81336;SDS011;70799;48.000;10.584;2023-12-07T13:03:35;5.07;;;2.10;;
81336;SDS011;70799;48.000;10.584;2023-12-07T13:08:49;5.18;;;2.25;;
81336;SDS011;70799;48.000;10.584;2023-12-07T13:11:25;4.22;;;2.05;;
81336;SDS011;70799;48.000;10.584;2023-12-07T13:14:03;4.65;;;1.85;;
81336;SDS011;70799;48.000;10.584;2023-12-07T13:16:40;3.53;;;2.00;;
81336;SDS011;70799;48.000;10.584;2023-12-07T13:19:16;3.03;;;1.42;;
81336;SDS011;70799;48.000;10.584;2023-12-07T13:21:54;3.67;;;1.60;;
81336;SDS011;70799;48.000;10.584;2023-12-07T13:24:30;3.40;;;1.55;;
81336;SDS011;70799;48.000;10.584;2023-12-07T13:27:07;6.60;;;2.13;;
81336;SDS011;70799;48.000;10.584;2023-12-07T13:29:43;3.67;;;1.95;;
81336;SDS011;70799;48.000;10.584;2023-12-07T13:32:20;5.75;;;2.30;;
81336;SDS011;70799;48.000;10.584;2023-12-07T13:34:58;9.30;;;2.92;;
81336;SDS011;70799;48.000;10.584;2023-12-07T13:37:35;7.88;;;2.47;;
81336;SDS011;70799;48.000;10.584;2023-12-07T13:40:14;5.85;;;3.05;;
81336;SDS011;70799;48.000;10.584;2023-12-07T13:42:50;5.10;;;2.20;;
81336;SDS011;70799;48.000;10.584;2023-12-07T13:45:26;6.40;;;2.45;;
81336;SDS011;70799;48.000;10.584;2023-12-07T13:48:03;4.53;;;2.13;;
81336;SDS011;70799;48.000;10.584;2023-12-07T13:50:39;4.95;;;2.17;;
81336;SDS011;70799;48.000;10.584;2023-12-07T13:53:15;5.30;;;2.25;;
81336;SDS011;70799;48.000;10.584;2023-12-07T13:55:51;3.83;;;2.10;;
81336;SDS011;70799;48.000;10.584;2023-12-07T13:58:27;5.60;;;3.42;;
81336;SDS011;70799;48.000;10.584;2023-12-07T14:01:04;5.38;;;2.70;;
81336;SDS011;70799;48.000;10.584;2023-12-07T14:03:40;5.63;;;2.60;;
81336;SDS011;70799;48.000;10.584;2023-12-07T14:06:22;5.53;;;2.45;;
81336;SDS011;70799;48.000;10.584;2023-12-07T14:09:02;5.97;;;2.33;;
81336;SDS011;70799;48.000;10.584;2023-12-07T14:11:38;5.57;;;2.55;;
81336;SDS011;70799;48.000;10.584;2023-12-07T14:14:14;4.88;;;2.42;;
81336;SDS011;70799;48.000;10.584;2023-12-07T14:19:38;7.15;;;2.92;;
81336;SDS011;70799;48.000;10.584;2023-12-07T14:22:14;4.40;;;2.30;;
81336;SDS011;70799;48.000;10.584;2023-12-07T14:24:50;6.03;;;2.85;;
81336;SDS011;70799;48.000;10.584;2023-12-07T14:27:26;5.82;;;2.83;;
81336;SDS011;70799;48.000;10.584;2023-12-07T14:30:02;6.45;;;3.00;;
81336;SDS011;70799;48.000;10.584;2023-12-07T14:32:39;6.30;;;2.53;;
81336;SDS011;70799;48.000;10.584;2023-12-07T14:35:20;6.22;;;3.50;;
81336;SDS011;70799;48.000;10.584;2023-12-07T14:37:57;6.85;;;3.22;;
81336;SDS011;70799;48.000;10.584;2023-12-07T14:40:34;4.10;;;2.33;;
81336;SDS011;70799;48.000;10.584;2023-12-07T14:43:11;6.20;;;2.90;;
81336;SDS011;70799;48.000;10.584;2023-12-07T14:45:47;6.53;;;3.03;;
81336;SDS011;70799;48.000;10.584;2023-12-07T14:48:24;7.95;;;3.05;;
81336;SDS011;70799;48.000;10.584;2023-12-07T14:51:02;6.55;;;3.08;;
81336;SDS011;70799;48.000;10.584;2023-12-07T14:53:38;6.88;;;3.55;;
81336;SDS011;70799;48.000;10.584;2023-12-07T14:56:14;5.13;;;3.28;;
81336;SDS011;70799;48.000;10.584;2023-12-07T14:58:50;7.90;;;2.80;;
81336;SDS011;70799;48.000;10.584;2023-12-07T15:01:26;6.20;;;3.15;;
81336;SDS011;70799;48.000;10.584;2023-12-07T15:04:03;5.55;;;2.85;;
81336;SDS011;70799;48.000;10.584;2023-12-07T15:06:43;7.53;;;3.25;;
81336;SDS011;70799;48.000;10.584;2023-12-07T15:11:55;6.63;;;2.92;;
81336;SDS011;70799;48.000;10.584;2023-12-07T15:14:32;6.88;;;3.00;;
81336;SDS011;70799;48.000;10.584;2023-12-07T15:17:10;5.57;;;2.85;;
81336;SDS011;70799;48.000;10.584;2023-12-07T15:19:46;8.25;;;3.95;;
81336;SDS011;70799;48.000;10.584;2023-12-07T15:22:22;6.20;;;2.92;;
81336;SDS011;70799;48.000;10.584;2023-12-07T15:25:00;7.65;;;3.30;;
81336;SDS011;70799;48.000;10.584;2023-12-07T15:27:41;5.93;;;3.17;;
81336;SDS011;70799;48.000;10.584;2023-12-07T15:30:19;7.75;;;3.67;;
81336;SDS011;70799;48.000;10.584;2023-12-07T15:32:55;6.70;;;3.28;;
81336;SDS011;70799;48.000;10.584;2023-12-07T15:35:33;8.48;;;3.63;;
81336;SDS011;70799;48.000;10.584;2023-12-07T15:38:09;7.65;;;3.60;;
81336;SDS011;70799;48.000;10.584;2023-12-07T15:40:46;9.13;;;3.90;;
81336;SDS011;70799;48.000;10.584;2023-12-07T15:43:23;6.95;;;3.08;;
81336;SDS011;70799;48.000;10.584;2023-12-07T15:45:59;8.63;;;3.60;;
81336;SDS011;70799;48.000;10.584;2023-12-07T15:48:39;8.43;;;3.95;;
81336;SDS011;70799;48.000;10.584;2023-12-07T15:51:15;9.82;;;3.90;;
81336;SDS011;70799;48.000;10.584;2023-12-07T15:53:51;8.88;;;4.28;;
81336;SDS011;70799;48.000;10.584;2023-12-07T15:56:27;9.55;;;4.10;;
81336;SDS011;70799;48.000;10.584;2023-12-07T15:59:03;8.30;;;3.63;;
81336;SDS011;70799;48.000;10.584;2023-12-07T16:01:40;9.07;;;4.10;;
81336;SDS011;70799;48.000;10.584;2023-12-07T16:04:16;8.18;;;4.10;;
81336;SDS011;70799;48.000;10.584;2023-12-07T16:07:04;8.98;;;4.15;;
81336;SDS011;70799;48.000;10.584;2023-12-07T16:09:42;8.80;;;4.50;;
81336;SDS011;70799;48.000;10.584;2023-12-07T16:14:54;8.52;;;3.40;;
81336;SDS011;70799;48.000;10.584;2023-12-07T16:17:32;7.35;;;3.45;;
81336;SDS011;70799;48.000;10.584;2023-12-07T16:20:08;7.38;;;3.08;;
81336;SDS011;70799;48.000;10.584;2023-12-07T16:22:47;9.13;;;3.50;;
81336;SDS011;70799;48.000;10.584;2023-12-07T16:25:23;7.43;;;3.40;;
81336;SDS011;70799;48.000;10.584;2023-12-07T16:27:59;7.75;;;3.80;;
81336;SDS011;70799;48.000;10.584;2023-12-07T16:30:35;7.88;;;4.22;;
81336;SDS011;70799;48.000;10.584;2023-12-07T16:33:19;8.40;;;3.70;;
81336;SDS011;70799;48.000;10.584;2023-12-07T16:35:55;7.25;;;3.25;;
81336;SDS011;70799;48.000;10.584;2023-12-07T16:38:41;8.90;;;3.90;;
81336;SDS011;70799;48.000;10.584;2023-12-07T16:41:20;8.75;;;3.78;;
81336;SDS011;70799;48.000;10.584;2023-12-07T16:43:57;9.50;;;4.43;;